Time;durP1;ratioP1;P1;durP2;ratioP2;P2;SDS_P1;SDS_P2;PMS_P1;PMS_P2;Temp;Humidity;BMP_temperature;BMP_pressure;BME280_temperature;BME280_humidity;BME280_pressure;Samples;Min_cycle;Max_cycle;Signal;HPM_P1;HPM_P2
2023/05/13 00:01:06;;;;;;;;;12.00;11.00;;;;;-147.17;100.00;-15917.19;5046703;28;51175;-62
2023/05/13 00:03:32;;;;;;;;;14.00;13.00;;;;;-147.17;100.00;-15917.19;5044250;28;51187;-62
2023/05/13 00:05:57;;;;;;;;;11.00;11.00;;;;;-147.17;100.00;-15917.19;5047697;28;51320;-63
2023/05/13 00:08:23;;;;;;;;;12.67;11.33;;;;;-147.17;100.00;-15917.19;5048136;28;51284;-61
2023/05/13 00:10:48;;;;;;;;;15.33;14.00;;;;;-147.17;100.00;-15917.19;5046691;28;51014;-62
2023/05/13 00:13:13;;;;;;;;;13.00;13.00;;;;;-147.17;100.00;-15917.19;5051788;28;51094;-62
2023/05/13 00:15:39;;;;;;;;;13.75;12.50;;;;;-147.17;100.00;-15917.19;5047600;28;51080;-63
2023/05/13 00:18:05;;;;;;;;;12.75;12.75;;;;;-147.17;100.00;-15917.19;5051183;28;51225;-61
2023/05/13 00:20:30;;;;;;;;;13.00;12.25;;;;;-147.17;100.00;-15917.19;5052434;28;52659;-62
2023/05/13 00:22:56;;;;;;;;;12.00;12.00;;;;;-147.17;100.00;-15917.19;5051464;28;51038;-60
2023/05/13 00:25:21;;;;;;;;;12.75;12.50;;;;;-147.17;100.00;-15917.19;5051307;28;51139;-60
2023/05/13 00:27:46;;;;;;;;;13.75;13.00;;;;;-147.17;100.00;-15917.19;5051458;28;51183;-62
2023/05/13 00:30:12;;;;;;;;;12.33;12.33;;;;;-147.17;100.00;-15917.19;5051067;28;51758;-63
2023/05/13 00:32:37;;;;;;;;;11.33;11.00;;;;;-147.17;100.00;-15917.19;5036734;28;51015;-62
2023/05/13 00:35:03;;;;;;;;;14.75;14.25;;;;;-147.17;100.00;-15917.19;5047711;28;57188;-63
2023/05/13 00:37:28;;;;;;;;;13.50;12.00;;;;;-147.17;100.00;-15917.19;5048138;28;51329;-60
2023/05/13 00:39:53;;;;;;;;;17.00;16.50;;;;;-147.17;100.00;-15917.19;5049204;28;52084;-61
2023/05/13 00:42:19;;;;;;;;;13.75;12.00;;;;;-147.17;100.00;-15917.19;5032305;28;50954;-60
2023/05/13 00:44:44;;;;;;;;;13.00;13.00;;;;;-147.17;100.00;-15917.19;5054582;28;50898;-61
2023/05/13 00:47:10;;;;;;;;;15.25;15.00;;;;;-147.17;100.00;-15917.19;5053804;28;53368;-62
2023/05/13 00:49:36;;;;;;;;;12.75;12.00;;;;;-147.17;100.00;-15917.19;5055208;28;52192;-62
2023/05/13 00:52:02;;;;;;;;;12.75;11.75;;;;;-147.17;100.00;-15917.19;5053771;28;51131;-62
2023/05/13 00:54:28;;;;;;;;;15.33;14.00;;;;;-147.17;100.00;-15917.19;5055370;28;51087;-61
2023/05/13 00:56:55;;;;;;;;;13.33;13.33;;;;;-147.17;100.00;-15917.19;5054199;28;51022;-61
2023/05/13 00:59:26;;;;;;;;;14.00;13.00;;;;;-147.17;100.00;-15917.19;5054754;28;51825;-61
2023/05/13 01:02:19;;;;;;;;;15.50;15.25;;;;;-147.17;100.00;-15917.19;5054466;28;51065;-61
2023/05/13 01:05:08;;;;;;;;;12.75;11.75;;;;;-147.17;100.00;-15917.19;5055366;28;51016;-61
2023/05/13 01:07:51;;;;;;;;;15.50;14.00;;;;;-147.17;100.00;-15917.19;5054758;28;51195;-62
2023/05/13 01:10:54;;;;;;;;;12.75;12.00;;;;;-147.17;100.00;-15917.19;5041847;28;52811;-62
2023/05/13 01:13:26;;;;;;;;;12.67;12.67;;;;;-147.17;100.00;-15917.19;5055254;28;51396;-61
2023/05/13 01:15:57;;;;;;;;;12.00;12.00;;;;;-147.17;100.00;-15917.19;5044538;28;50986;-62
2023/05/13 01:18:28;;;;;;;;;14.50;13.00;;;;;-147.17;100.00;-15917.19;5055758;28;50945;-61
2023/05/13 01:20:55;;;;;;;;;11.33;11.33;;;;;-147.17;100.00;-15917.19;5054308;28;52457;-62
2023/05/13 01:23:20;;;;;;;;;14.75;14.75;;;;;-147.17;100.00;-15917.19;5052431;28;51363;-61
2023/05/13 01:25:46;;;;;;;;;15.25;14.50;;;;;-147.17;100.00;-15917.19;5054129;28;50996;-62
2023/05/13 01:28:12;;;;;;;;;11.67;11.67;;;;;-147.17;100.00;-15917.19;5055329;28;51194;-62
2023/05/13 01:30:38;;;;;;;;;13.00;12.00;;;;;-147.17;100.00;-15917.19;5051107;28;51232;-62
2023/05/13 01:33:04;;;;;;;;;13.00;12.25;;;;;-147.17;100.00;-15917.19;5054971;28;51086;-63
2023/05/13 01:35:30;;;;;;;;;12.25;12.25;;;;;-147.17;100.00;-15917.19;5049068;28;51330;-61
2023/05/13 01:37:56;;;;;;;;;11.00;11.00;;;;;-147.17;100.00;-15917.19;5055726;28;51063;-61
2023/05/13 01:40:22;;;;;;;;;13.00;12.67;;;;;-147.17;100.00;-15917.19;5053669;28;52216;-61
2023/05/13 01:42:48;;;;;;;;;12.50;11.00;;;;;-147.17;100.00;-15917.19;5036334;28;51100;-61
2023/05/13 01:45:13;;;;;;;;;13.75;13.25;;;;;-147.17;100.00;-15917.19;5053197;28;51343;-61
2023/05/13 01:47:39;;;;;;;;;13.33;13.33;;;;;-147.17;100.00;-15917.19;5055141;28;51227;-62
2023/05/13 01:50:05;;;;;;;;;13.33;12.67;;;;;-147.17;100.00;-15917.19;5041468;28;51422;-61
2023/05/13 01:52:30;;;;;;;;;13.33;12.67;;;;;-147.17;100.00;-15917.19;5055324;28;50949;-62
2023/05/13 01:54:55;;;;;;;;;16.75;15.75;;;;;-147.17;100.00;-15917.19;5053896;28;51620;-61
2023/05/13 01:57:21;;;;;;;;;14.25;14.25;;;;;-147.17;100.00;-15917.19;5055109;28;50935;-61
2023/05/13 01:59:46;;;;;;;;;13.75;13.50;;;;;-147.17;100.00;-15917.19;5053591;28;51576;-61
2023/05/13 02:02:11;;;;;;;;;12.25;11.25;;;;;-147.17;100.00;-15917.19;5052554;28;51200;-61
2023/05/13 02:04:37;;;;;;;;;16.00;15.25;;;;;-147.17;100.00;-15917.19;5053466;28;51079;-61
2023/05/13 02:07:02;;;;;;;;;13.00;12.50;;;;;-147.17;100.00;-15917.19;5019399;28;51272;-62
2023/05/13 02:09:28;;;;;;;;;16.00;15.75;;;;;-147.17;100.00;-15917.19;5023758;28;53716;-61
2023/05/13 02:11:53;;;;;;;;;16.50;15.50;;;;;-147.17;100.00;-15917.19;5053457;28;50945;-61
2023/05/13 02:14:19;;;;;;;;;18.00;15.75;;;;;-147.17;100.00;-15917.19;5053897;28;55938;-61
2023/05/13 02:16:45;;;;;;;;;16.00;13.25;;;;;-147.17;100.00;-15917.19;5036739;28;50937;-61
2023/05/13 02:19:10;;;;;;;;;16.00;15.75;;;;;-147.17;100.00;-15917.19;5053061;28;52895;-61
2023/05/13 02:21:35;;;;;;;;;15.75;14.75;;;;;-147.17;100.00;-15917.19;5050930;28;50965;-61
2023/05/13 02:24:01;;;;;;;;;21.50;19.00;;;;;-147.17;100.00;-15917.19;5051310;28;51429;-63
2023/05/13 02:26:26;;;;;;;;;16.00;14.75;;;;;-147.17;100.00;-15917.19;5032527;28;50973;-61
2023/05/13 02:28:51;;;;;;;;;16.00;14.75;;;;;-147.17;100.00;-15917.19;5049515;28;51093;-62
2023/05/13 02:31:17;;;;;;;;;17.00;17.00;;;;;-147.17;100.00;-15917.19;5052230;28;50952;-61
2023/05/13 02:33:42;;;;;;;;;17.75;16.00;;;;;-147.17;100.00;-15917.19;5053702;28;51925;-62
2023/05/13 02:36:08;;;;;;;;;15.25;15.25;;;;;-147.17;100.00;-15917.19;5054684;28;51067;-61
2023/05/13 02:38:33;;;;;;;;;16.25;14.75;;;;;-147.17;100.00;-15917.19;5052364;28;51612;-62
2023/05/13 02:41:00;;;;;;;;;18.00;17.50;;;;;-147.17;100.00;-15917.19;5046222;28;51077;-61
2023/05/13 02:43:26;;;;;;;;;22.75;21.50;;;;;-147.17;100.00;-15917.19;5054193;28;50884;-61
2023/05/13 02:45:52;;;;;;;;;18.00;16.00;;;;;-147.17;100.00;-15917.19;5064543;28;51005;-61
2023/05/13 02:48:17;;;;;;;;;18.00;16.00;;;;;-147.17;100.00;-15917.19;5053068;28;51236;-60
2023/05/13 02:50:43;;;;;;;;;16.00;15.00;;;;;-147.17;100.00;-15917.19;5051398;28;51159;-61
2023/05/13 02:53:09;;;;;;;;;20.75;20.75;;;;;-147.17;100.00;-15917.19;5048678;28;51185;-61
2023/05/13 02:55:34;;;;;;;;;11.50;10.25;;;;;-147.17;100.00;-15917.19;5053848;28;51176;-61
2023/05/13 02:57:59;;;;;;;;;19.00;19.00;;;;;-147.17;100.00;-15917.19;5050881;28;51229;-61
2023/05/13 03:00:25;;;;;;;;;20.00;19.00;;;;;-147.17;100.00;-15917.19;5052285;28;51194;-61
2023/05/13 03:02:50;;;;;;;;;16.50;16.50;;;;;-147.17;100.00;-15917.19;5052400;28;51040;-62
2023/05/13 03:05:16;;;;;;;;;22.75;21.50;;;;;-147.17;100.00;-15917.19;5053807;28;51136;-59
2023/05/13 03:07:41;;;;;;;;;15.50;15.25;;;;;-147.17;100.00;-15917.19;5052976;28;51806;-60
2023/05/13 03:10:07;;;;;;;;;24.50;23.75;;;;;-147.17;100.00;-15917.19;5050482;28;51250;-62
2023/05/13 03:12:32;;;;;;;;;20.75;20.75;;;;;-147.17;100.00;-15917.19;5050224;28;51369;-61
2023/05/13 03:14:58;;;;;;;;;20.75;20.00;;;;;-147.17;100.00;-15917.19;5052082;28;51082;-61
2023/05/13 03:17:24;;;;;;;;;26.75;25.00;;;;;-147.17;100.00;-15917.19;5053092;28;51981;-61
2023/05/13 03:19:50;;;;;;;;;22.25;21.00;;;;;-147.17;100.00;-15917.19;5052082;28;51121;-61
2023/05/13 03:22:15;;;;;;;;;24.50;23.25;;;;;-147.17;100.00;-15917.19;5052303;28;51211;-61
2023/05/13 03:24:42;;;;;;;;;25.00;23.00;;;;;-147.17;100.00;-15917.19;5051899;28;51229;-61
2023/05/13 03:27:07;;;;;;;;;26.50;25.75;;;;;-147.17;100.00;-15917.19;5052938;28;51855;-61
2023/05/13 03:29:32;;;;;;;;;31.00;27.25;;;;;-147.17;100.00;-15917.19;5052065;28;51537;-62
2023/05/13 03:31:58;;;;;;;;;27.25;25.25;;;;;-147.17;100.00;-15917.19;5050179;28;52963;-61
2023/05/13 03:34:23;;;;;;;;;32.25;29.75;;;;;-147.17;100.00;-15917.19;5053331;28;51219;-62
2023/05/13 03:36:48;;;;;;;;;34.25;30.00;;;;;-147.17;100.00;-15917.19;5046925;28;52022;-61
2023/05/13 03:39:15;;;;;;;;;36.25;33.25;;;;;-147.17;100.00;-15917.19;5048532;28;51142;-61
2023/05/13 03:41:40;;;;;;;;;31.25;30.75;;;;;-147.17;100.00;-15917.19;5051976;28;51326;-62
2023/05/13 03:44:05;;;;;;;;;37.25;33.75;;;;;-147.17;100.00;-15917.19;5052509;28;51357;-62
2023/05/13 03:46:31;;;;;;;;;38.50;33.75;;;;;-147.17;100.00;-15917.19;5052031;28;56694;-62
2023/05/13 03:48:56;;;;;;;;;37.00;33.25;;;;;-147.17;100.00;-15917.19;5046155;28;51179;-62
2023/05/13 03:51:21;;;;;;;;;42.25;37.50;;;;;-147.17;100.00;-15917.19;5051645;28;51026;-62
2023/05/13 03:53:47;;;;;;;;;41.25;36.25;;;;;-147.17;100.00;-15917.19;5053219;28;51035;-61
2023/05/13 03:56:13;;;;;;;;;44.25;38.50;;;;;-147.17;100.00;-15917.19;5051797;28;52064;-61
2023/05/13 03:58:39;;;;;;;;;43.75;37.50;;;;;-147.17;100.00;-15917.19;5053056;28;51011;-61
2023/05/13 04:01:06;;;;;;;;;47.50;40.00;;;;;-147.17;100.00;-15917.19;5051844;28;51128;-61
2023/05/13 04:03:33;;;;;;;;;53.25;43.00;;;;;-147.17;100.00;-15917.19;5046155;28;51210;-61
2023/05/13 04:05:58;;;;;;;;;49.00;41.75;;;;;-147.17;100.00;-15917.19;5052712;28;52908;-61
2023/05/13 04:08:23;;;;;;;;;51.75;41.25;;;;;-147.17;100.00;-15917.19;5049103;28;51153;-63
2023/05/13 04:10:49;;;;;;;;;53.50;43.25;;;;;-147.17;100.00;-15917.19;5052205;28;50929;-61
2023/05/13 04:13:14;;;;;;;;;52.75;43.25;;;;;-147.17;100.00;-15917.19;5053015;28;51031;-61
2023/05/13 04:15:39;;;;;;;;;54.75;42.50;;;;;-147.17;100.00;-15917.19;5050079;28;51211;-61
2023/05/13 04:18:05;;;;;;;;;53.25;44.50;;;;;-147.17;100.00;-15917.19;5052403;28;51148;-62
2023/05/13 04:20:31;;;;;;;;;55.25;44.75;;;;;-147.17;100.00;-15917.19;5047770;28;51183;-61
2023/05/13 04:22:56;;;;;;;;;53.50;44.50;;;;;-147.17;100.00;-15917.19;5053056;28;51065;-61
2023/05/13 04:25:21;;;;;;;;;55.75;45.50;;;;;-147.17;100.00;-15917.19;5050977;28;51794;-61
2023/05/13 04:27:47;;;;;;;;;54.00;45.00;;;;;-147.17;100.00;-15917.19;5051931;28;51227;-61
2023/05/13 04:30:12;;;;;;;;;56.75;45.25;;;;;-147.17;100.00;-15917.19;5051060;28;51098;-60
2023/05/13 04:32:38;;;;;;;;;62.75;46.75;;;;;-147.17;100.00;-15917.19;5051644;28;51087;-60
2023/05/13 04:35:06;;;;;;;;;61.00;48.00;;;;;-147.17;100.00;-15917.19;5052058;28;50914;-60
2023/05/13 04:37:31;;;;;;;;;55.75;46.00;;;;;-147.17;100.00;-15917.19;5049281;28;51263;-60
2023/05/13 04:39:57;;;;;;;;;58.25;47.50;;;;;-147.17;100.00;-15917.19;5050630;28;51260;-62
2023/05/13 04:42:22;;;;;;;;;53.75;43.50;;;;;-147.17;100.00;-15917.19;5051506;28;51113;-61
2023/05/13 04:44:47;;;;;;;;;58.00;46.50;;;;;-147.17;100.00;-15917.19;5057916;28;52106;-61
2023/05/13 04:47:13;;;;;;;;;56.00;46.50;;;;;-147.17;100.00;-15917.19;5051168;28;51064;-61
2023/05/13 04:49:38;;;;;;;;;59.75;46.25;;;;;-147.17;100.00;-15917.19;5051560;28;51056;-61
2023/05/13 04:52:05;;;;;;;;;59.25;46.50;;;;;-147.17;100.00;-15917.19;5050348;28;51274;-61
2023/05/13 04:54:30;;;;;;;;;54.00;45.00;;;;;-147.17;100.00;-15917.19;5050403;28;50981;-61
2023/05/13 04:56:55;;;;;;;;;56.50;45.75;;;;;-147.17;100.00;-15917.19;5048803;28;51313;-61
2023/05/13 04:59:21;;;;;;;;;55.75;46.25;;;;;-147.17;100.00;-15917.19;5048994;28;51054;-61
2023/05/13 05:01:47;;;;;;;;;61.00;47.75;;;;;-147.17;100.00;-15917.19;5050698;28;51278;-61
2023/05/13 05:04:12;;;;;;;;;57.00;47.00;;;;;-147.17;100.00;-15917.19;5049421;28;51842;-61
2023/05/13 05:06:38;;;;;;;;;55.00;46.00;;;;;-147.17;100.00;-15917.19;5051091;28;51085;-60
2023/05/13 05:09:03;;;;;;;;;56.50;46.75;;;;;-147.17;100.00;-15917.19;5050599;28;51121;-61
2023/05/13 05:11:29;;;;;;;;;60.50;48.50;;;;;-147.17;100.00;-15917.19;5049561;28;51371;-61
2023/05/13 05:13:54;;;;;;;;;52.75;44.75;;;;;-147.17;100.00;-15917.19;5053813;28;51791;-61
2023/05/13 05:16:19;;;;;;;;;56.00;47.00;;;;;-147.17;100.00;-15917.19;5044521;28;51275;-62
2023/05/13 05:18:45;;;;;;;;;54.75;45.00;;;;;-147.17;100.00;-15917.19;5047331;28;51134;-61
2023/05/13 05:21:11;;;;;;;;;58.00;46.75;;;;;-147.17;100.00;-15917.19;5050556;28;51101;-60
2023/05/13 05:23:36;;;;;;;;;53.00;43.50;;;;;-147.17;100.00;-15917.19;5050928;28;51963;-62
2023/05/13 05:26:02;;;;;;;;;55.00;46.00;;;;;-147.17;100.00;-15917.19;5051781;28;57408;-60
2023/05/13 05:28:28;;;;;;;;;54.00;43.50;;;;;-147.17;100.00;-15917.19;5053121;28;51206;-60
2023/05/13 05:30:53;;;;;;;;;50.50;41.00;;;;;-147.17;100.00;-15917.19;5054085;28;51383;-60
2023/05/13 05:33:19;;;;;;;;;56.25;46.00;;;;;-147.17;100.00;-15917.19;5054005;28;52910;-61
2023/05/13 05:35:44;;;;;;;;;54.50;44.50;;;;;-147.17;100.00;-15917.19;5049296;28;51140;-62
2023/05/13 05:38:11;;;;;;;;;50.00;42.75;;;;;-147.17;100.00;-15917.19;5052920;28;51001;-60
2023/05/13 05:40:40;;;;;;;;;54.50;44.50;;;;;-147.17;100.00;-15917.19;5055400;28;51282;-62
2023/05/13 05:43:06;;;;;;;;;49.25;40.00;;;;;-147.17;100.00;-15917.19;5051700;28;52082;-62
2023/05/13 05:45:34;;;;;;;;;49.75;41.50;;;;;-147.17;100.00;-15917.19;5052550;28;51233;-62
2023/05/13 05:47:59;;;;;;;;;49.00;41.50;;;;;-147.17;100.00;-15917.19;5033089;28;51226;-61
2023/05/13 05:50:24;;;;;;;;;32.25;28.50;;;;;-147.17;100.00;-15917.19;5054128;28;51349;-61
2023/05/13 05:52:50;;;;;;;;;49.50;42.50;;;;;-147.17;100.00;-15917.19;5051520;28;51127;-61
2023/05/13 05:55:15;;;;;;;;;50.75;42.75;;;;;-147.17;100.00;-15917.19;5051330;28;51150;-61
2023/05/13 05:57:40;;;;;;;;;52.00;42.00;;;;;-147.17;100.00;-15917.19;5052987;28;51234;-61
2023/05/13 06:00:06;;;;;;;;;48.25;41.25;;;;;-147.17;100.00;-15917.19;5052548;28;51279;-60
2023/05/13 06:02:32;;;;;;;;;52.00;42.25;;;;;-147.17;100.00;-15917.19;5028375;28;51259;-62
2023/05/13 06:04:57;;;;;;;;;54.50;44.50;;;;;-147.17;100.00;-15917.19;5039837;28;51085;-61
2023/05/13 06:07:22;;;;;;;;;44.25;38.75;;;;;-147.17;100.00;-15917.19;5039530;28;51415;-62
2023/05/13 06:09:48;;;;;;;;;45.00;38.25;;;;;-147.17;100.00;-15917.19;5048162;28;51320;-63
2023/05/13 06:12:13;;;;;;;;;47.75;39.00;;;;;-147.17;100.00;-15917.19;5054495;28;51916;-61
2023/05/13 06:14:38;;;;;;;;;48.25;39.25;;;;;-147.17;100.00;-15917.19;5035906;28;53169;-61
2023/05/13 06:17:04;;;;;;;;;50.50;41.00;;;;;-147.17;100.00;-15917.19;5053872;28;50906;-61
2023/05/13 06:19:29;;;;;;;;;46.25;39.00;;;;;-147.17;100.00;-15917.19;5021223;28;52858;-62
2023/05/13 06:21:54;;;;;;;;;49.50;41.50;;;;;-147.17;100.00;-15917.19;5042602;28;65049;-61
2023/05/13 06:24:20;;;;;;;;;51.75;43.00;;;;;-147.17;100.00;-15917.19;5054162;28;51098;-61
2023/05/13 06:26:45;;;;;;;;;48.00;40.25;;;;;-147.17;100.00;-15917.19;5053511;28;51056;-60
2023/05/13 06:29:10;;;;;;;;;50.00;42.25;;;;;-147.17;100.00;-15917.19;5053017;28;50916;-62
2023/05/13 06:31:36;;;;;;;;;50.00;42.00;;;;;-147.17;100.00;-15917.19;5048498;28;51481;-61
2023/05/13 06:34:01;;;;;;;;;50.75;43.00;;;;;-147.17;100.00;-15917.19;5052848;28;51136;-61
2023/05/13 06:36:26;;;;;;;;;46.50;39.00;;;;;-147.17;100.00;-15917.19;5051339;28;51455;-62
2023/05/13 06:38:53;;;;;;;;;50.75;41.50;;;;;-147.17;100.00;-15917.19;5047512;28;51326;-61
2023/05/13 06:41:18;;;;;;;;;51.00;41.75;;;;;-147.17;100.00;-15917.19;5050210;28;52425;-62
2023/05/13 06:43:44;;;;;;;;;49.75;42.00;;;;;-147.17;100.00;-15917.19;5047267;28;51111;-63
2023/05/13 06:46:10;;;;;;;;;49.00;41.25;;;;;-147.17;100.00;-15917.19;5027680;28;51123;-62
2023/05/13 06:48:36;;;;;;;;;49.00;41.25;;;;;-147.17;100.00;-15917.19;5047862;28;51380;-62
2023/05/13 06:51:01;;;;;;;;;47.75;39.75;;;;;-147.17;100.00;-15917.19;5049426;28;52489;-62
2023/05/13 06:53:26;;;;;;;;;49.25;40.75;;;;;-147.17;100.00;-15917.19;5052767;28;51061;-63
2023/05/13 06:55:51;;;;;;;;;50.75;42.50;;;;;-147.17;100.00;-15917.19;5051811;28;51081;-62
2023/05/13 06:58:17;;;;;;;;;48.75;41.50;;;;;-147.17;100.00;-15917.19;5049780;28;52551;-63
2023/05/13 07:00:42;;;;;;;;;51.25;41.25;;;;;-147.17;100.00;-15917.19;5050703;28;52265;-63
2023/05/13 07:03:08;;;;;;;;;48.75;40.00;;;;;-147.17;100.00;-15917.19;5050346;28;51369;-62
2023/05/13 07:05:34;;;;;;;;;46.50;39.50;;;;;-147.17;100.00;-15917.19;5027089;28;56483;-63
2023/05/13 07:08:05;;;;;;;;;47.00;39.25;;;;;-147.17;100.00;-15917.19;5052204;28;51147;-62
2023/05/13 07:10:30;;;;;;;;;48.00;40.75;;;;;-147.17;100.00;-15917.19;5038089;28;52078;-63
2023/05/13 07:12:56;;;;;;;;;44.75;37.25;;;;;-147.17;100.00;-15917.19;5057099;28;51041;-63
2023/05/13 07:15:22;;;;;;;;;46.00;38.75;;;;;-147.17;100.00;-15917.19;5047111;28;51215;-64
2023/05/13 07:17:48;;;;;;;;;51.00;41.25;;;;;-147.17;100.00;-15915.72;5041831;28;51222;-63
2023/05/13 07:20:13;;;;;;;;;39.00;35.25;;;;;-147.17;100.00;-15420.25;5042546;28;51859;-64
2023/05/13 07:22:38;;;;;;;;;47.25;39.00;;;;;-147.17;100.00;-15420.25;5045834;28;54780;-63
2023/05/13 07:25:04;;;;;;;;;46.00;39.25;;;;;-147.17;100.00;-15172.50;5048046;28;51246;-63
2023/05/13 07:27:30;;;;;;;;;43.50;36.50;;;;;-147.17;100.00;-15420.25;5033061;28;51256;-63
2023/05/13 07:29:55;;;;;;;;;46.25;38.50;;;;;-147.17;100.00;-15668.00;5032534;28;52485;-63
2023/05/13 07:32:20;;;;;;;;;48.00;39.50;;;;;-147.17;100.00;-15915.72;5043107;28;51487;-63
2023/05/13 07:34:46;;;;;;;;;48.25;41.00;;;;;-147.17;100.00;-15917.19;5037895;28;51298;-63
2023/05/13 07:37:11;;;;;;;;;46.75;39.00;;;;;-147.17;100.00;-15917.19;5049371;28;50921;-63
2023/05/13 07:39:36;;;;;;;;;43.75;37.25;;;;;-147.17;100.00;-15917.19;5042727;28;51758;-63
2023/05/13 07:42:02;;;;;;;;;51.75;42.75;;;;;-147.17;100.00;-15917.19;5043597;28;51208;-62
2023/05/13 07:44:27;;;;;;;;;46.50;40.25;;;;;-147.17;100.00;-15917.19;5028703;28;51190;-62
2023/05/13 07:46:53;;;;;;;;;51.00;43.00;;;;;-147.17;100.00;-15917.19;5045253;28;51144;-62
2023/05/13 07:49:20;;;;;;;;;52.00;43.00;;;;;-147.17;100.00;-15917.19;5322301;22;51990;-62
2023/05/13 07:51:46;;;;;;;;;53.50;44.50;;;;;-147.17;100.00;-15917.19;5068076;28;51238;-62
2023/05/13 07:54:11;;;;;;;;;49.00;40.25;;;;;-147.17;100.00;-15917.19;5061677;27;51313;-63
2023/05/13 07:56:37;;;;;;;;;52.50;42.75;;;;;-147.17;100.00;-15917.19;5065702;28;51129;-62
2023/05/13 07:59:02;;;;;;;;;52.50;44.25;;;;;-147.17;100.00;-15917.19;5051382;28;51072;-63
2023/05/13 08:01:28;;;;;;;;;55.75;44.00;;;;;-147.17;100.00;-15917.19;5071427;28;50895;-63
2023/05/13 08:03:54;;;;;;;;;53.50;44.50;;;;;-147.17;100.00;-15917.19;5073150;28;51048;-63
2023/05/13 08:06:19;;;;;;;;;54.75;44.75;;;;;-147.17;100.00;-15917.19;5054766;28;51328;-64
2023/05/13 08:08:44;;;;;;;;;55.50;46.25;;;;;-147.17;100.00;-15917.19;5064616;28;52344;-64
2023/05/13 08:11:10;;;;;;;;;62.50;49.00;;;;;-147.17;100.00;-15917.19;5071284;28;51183;-64
2023/05/13 08:13:35;;;;;;;;;59.50;48.75;;;;;-147.17;100.00;-15917.19;5068066;28;51139;-63
2023/05/13 08:16:02;;;;;;;;;57.25;47.00;;;;;-147.17;100.00;-15917.19;5073048;28;50946;-64
2023/05/13 08:18:28;;;;;;;;;62.25;51.00;;;;;-147.17;100.00;-15917.19;5072786;28;52941;-63
2023/05/13 08:20:53;;;;;;;;;55.50;46.75;;;;;-147.17;100.00;-15917.19;5072523;28;51183;-63
2023/05/13 08:23:19;;;;;;;;;58.75;47.25;;;;;-147.17;100.00;-15917.19;5072912;28;50965;-63
2023/05/13 08:25:44;;;;;;;;;62.00;50.25;;;;;-147.17;100.00;-15917.19;5072688;28;51060;-63
2023/05/13 08:28:09;;;;;;;;;61.50;49.50;;;;;-147.17;100.00;-15917.19;5070233;28;52480;-63
2023/05/13 08:30:35;;;;;;;;;59.25;47.75;;;;;-147.17;100.00;-15917.19;5070795;28;51088;-64
2023/05/13 08:33:00;;;;;;;;;56.00;46.25;;;;;-147.17;100.00;-15917.19;5072418;28;50986;-63
2023/05/13 08:35:26;;;;;;;;;57.25;47.00;;;;;-147.17;100.00;-15917.19;5072766;28;50905;-63
2023/05/13 08:37:51;;;;;;;;;60.00;48.25;;;;;-147.17;100.00;-15917.19;5070811;28;51971;-63
2023/05/13 08:40:17;;;;;;;;;58.75;48.00;;;;;-147.17;100.00;-15917.19;5071569;28;51190;-62
2023/05/13 08:42:46;;;;;;;;;61.25;48.50;;;;;-147.17;100.00;-15917.19;5072045;28;51165;-64
2023/05/13 08:45:12;;;;;;;;;59.25;47.25;;;;;-147.17;100.00;-15917.19;5065001;28;51438;-63
2023/05/13 08:47:51;;;;;;;;;59.00;46.25;;;;;-147.17;100.00;-15917.19;5071885;28;51819;-64
2023/05/13 08:50:18;;;;;;;;;57.75;47.50;;;;;-147.17;100.00;-15917.19;5071631;28;50977;-62
2023/05/13 08:52:44;;;;;;;;;61.25;48.75;;;;;-147.17;100.00;-15917.19;5071944;28;50989;-64
2023/05/13 08:55:10;;;;;;;;;58.50;47.75;;;;;-147.17;100.00;-15917.19;5072112;28;51268;-63
2023/05/13 08:57:35;;;;;;;;;59.25;47.75;;;;;-147.17;100.00;-15917.19;5071384;28;51696;-63
2023/05/13 09:00:01;;;;;;;;;56.75;46.25;;;;;-147.17;100.00;-15917.19;5069217;28;51045;-63
2023/05/13 09:02:27;;;;;;;;;61.00;49.25;;;;;-147.17;100.00;-15917.19;5074982;28;50982;-63
2023/05/13 09:04:54;;;;;;;;;57.00;47.00;;;;;-147.17;100.00;-15917.19;5075354;28;51120;-62
2023/05/13 09:07:20;;;;;;;;;61.75;50.50;;;;;-147.17;100.00;-15917.19;5075036;28;51209;-64
2023/05/13 09:09:45;;;;;;;;;60.75;49.00;;;;;-147.17;100.00;-15917.19;5074304;28;50955;-63
2023/05/13 09:12:11;;;;;;;;;59.25;48.00;;;;;-147.17;100.00;-15917.19;5074894;27;51090;-63
2023/05/13 09:14:37;;;;;;;;;60.00;48.00;;;;;-147.17;100.00;-15917.19;5069514;27;51838;-63
2023/05/13 09:17:03;;;;;;;;;59.50;48.50;;;;;-147.17;100.00;-15917.19;5065175;28;52324;-63
2023/05/13 09:19:28;;;;;;;;;59.75;48.50;;;;;-147.17;100.00;-15917.19;5074831;28;51010;-64
2023/05/13 09:21:55;;;;;;;;;59.75;48.00;;;;;-147.17;100.00;-15917.19;5069839;27;51729;-63
2023/05/13 09:24:21;;;;;;;;;63.25;48.75;;;;;-147.17;100.00;-15917.19;5072875;28;51050;-63
2023/05/13 09:26:48;;;;;;;;;59.75;47.75;;;;;-147.17;100.00;-15917.19;5074576;28;51092;-62
2023/05/13 09:29:18;;;;;;;;;60.75;50.00;;;;;-147.17;100.00;-15917.19;5074881;28;51006;-62
2023/05/13 09:31:45;;;;;;;;;60.50;48.50;;;;;-147.17;100.00;-15917.19;5068740;28;51099;-63
2023/05/13 09:34:11;;;;;;;;;55.00;43.75;;;;;-147.17;100.00;-15917.19;5070336;28;51063;-63
2023/05/13 09:36:37;;;;;;;;;58.50;47.50;;;;;-147.17;100.00;-15917.19;5074511;28;52769;-62
2023/05/13 09:39:02;;;;;;;;;56.00;46.00;;;;;-147.17;100.00;-15917.19;5064699;28;51168;-63
2023/05/13 09:41:29;;;;;;;;;59.75;48.00;;;;;-147.17;100.00;-15917.19;5073706;28;51556;-63
2023/05/13 09:43:55;;;;;;;;;56.75;45.25;;;;;-147.17;100.00;-15917.19;5061751;27;51167;-62
2023/05/13 09:46:20;;;;;;;;;55.00;44.75;;;;;-147.17;100.00;-15917.19;5072949;28;51915;-64
2023/05/13 09:48:46;;;;;;;;;56.25;46.50;;;;;-147.17;100.00;-15917.19;5051981;28;51028;-62
2023/05/13 09:51:13;;;;;;;;;59.25;48.50;;;;;-147.17;100.00;-15917.19;5068011;28;51112;-64
2023/05/13 09:53:39;;;;;;;;;57.25;47.00;;;;;-147.17;100.00;-15917.19;5049146;28;50929;-64
2023/05/13 09:56:08;;;;;;;;;59.75;48.75;;;;;-147.17;100.00;-15917.19;5067905;28;52804;-63
2023/05/13 09:58:34;;;;;;;;;56.50;45.25;;;;;-147.17;100.00;-15917.19;5067692;28;51370;-63
2023/05/13 10:01:01;;;;;;;;;56.50;43.50;;;;;-147.17;100.00;-15917.19;5067964;27;51411;-64
2023/05/13 10:03:28;;;;;;;;;52.00;43.25;;;;;-147.17;100.00;-15917.19;5067934;27;51094;-63
2023/05/13 10:05:54;;;;;;;;;51.75;44.00;;;;;-147.17;100.00;-15917.19;5064780;28;52142;-64
2023/05/13 10:08:21;;;;;;;;;53.50;44.75;;;;;-147.17;100.00;-15917.19;5064050;27;51251;-63
2023/05/13 10:10:49;;;;;;;;;54.50;45.00;;;;;-147.17;100.00;-15917.19;5073926;28;51197;-64
2023/05/13 10:13:16;;;;;;;;;53.00;43.75;;;;;-147.17;100.00;-15917.19;5072695;28;51252;-64
2023/05/13 10:15:53;;;;;;;;;55.00;45.75;;;;;-147.17;100.00;-15917.19;5058207;28;51243;-64
2023/05/13 10:18:20;;;;;;;;;52.00;43.75;;;;;-147.17;100.00;-15917.19;5067327;28;51241;-64
2023/05/13 10:20:46;;;;;;;;;51.50;41.75;;;;;-147.17;100.00;-15917.19;5067235;28;51018;-64
2023/05/13 10:23:12;;;;;;;;;51.50;42.50;;;;;-147.17;100.00;-15917.19;5074267;28;51128;-64
2023/05/13 10:25:38;;;;;;;;;52.75;43.25;;;;;-147.17;100.00;-15917.19;5072619;28;51142;-64
2023/05/13 10:28:04;;;;;;;;;49.25;40.25;;;;;-147.17;100.00;-15172.50;5072808;28;51080;-64
2023/05/13 10:30:31;;;;;;;;;53.50;42.75;;;;;-147.17;100.00;-15172.50;5051787;28;51164;-62
2023/05/13 10:32:57;;;;;;;;;54.25;45.75;;;;;-147.17;100.00;-14676.94;5071368;28;51000;-62
2023/05/13 10:35:30;;;;;;;;;53.25;43.50;;;;;-147.17;100.00;-14676.94;5070348;28;51113;-62
2023/05/13 10:38:02;;;;;;;;;52.00;41.50;;;;;-147.17;100.00;-15420.25;5071668;28;51196;-62
2023/05/13 10:40:50;;;;;;;;;49.75;42.25;;;;;-147.17;100.00;-15668.00;5072275;28;51294;-61
2023/05/13 10:43:27;;;;;;;;;52.25;42.50;;;;;-147.17;100.00;-15668.00;5023515;28;52139;-62